sensor_id;sensor_type;location;lat;lon;timestamp;temperature;humidity
68867;SHT30;56451;44.804;20.476;2023-07-28T00:00:03;22.04;47.83
68867;SHT30;56451;44.804;20.476;2023-07-28T00:02:36;22.06;47.78
68867;SHT30;56451;44.804;20.476;2023-07-28T00:05:01;22.05;47.57
68867;SHT30;56451;44.804;20.476;2023-07-28T00:07:27;22.02;47.63
68867;SHT30;56451;44.804;20.476;2023-07-28T00:09:53;22.02;47.54
68867;SHT30;56451;44.804;20.476;2023-07-28T00:12:19;22.01;47.75
68867;SHT30;56451;44.804;20.476;2023-07-28T00:14:45;22.04;47.54
68867;SHT30;56451;44.804;20.476;2023-07-28T00:17:11;22.02;47.72
68867;SHT30;56451;44.804;20.476;2023-07-28T00:19:37;21.98;47.54
68867;SHT30;56451;44.804;20.476;2023-07-28T00:22:03;22.02;47.38
68867;SHT30;56451;44.804;20.476;2023-07-28T00:24:29;21.95;47.37
68867;SHT30;56451;44.804;20.476;2023-07-28T00:26:55;21.96;47.33
68867;SHT30;56451;44.804;20.476;2023-07-28T00:29:21;21.95;47.41
68867;SHT30;56451;44.804;20.476;2023-07-28T00:31:46;21.94;47.57
68867;SHT30;56451;44.804;20.476;2023-07-28T00:34:14;21.94;47.80
68867;SHT30;56451;44.804;20.476;2023-07-28T00:36:40;21.94;47.30
68867;SHT30;56451;44.804;20.476;2023-07-28T00:39:07;21.92;47.41
68867;SHT30;56451;44.804;20.476;2023-07-28T00:41:33;21.88;47.29
68867;SHT30;56451;44.804;20.476;2023-07-28T00:43:59;21.85;47.48
68867;SHT30;56451;44.804;20.476;2023-07-28T00:46:24;21.87;47.58
68867;SHT30;56451;44.804;20.476;2023-07-28T00:48:51;21.84;47.40
68867;SHT30;56451;44.804;20.476;2023-07-28T00:51:17;21.82;47.65
68867;SHT30;56451;44.804;20.476;2023-07-28T00:53:43;21.79;47.64
68867;SHT30;56451;44.804;20.476;2023-07-28T00:56:10;21.79;47.73
68867;SHT30;56451;44.804;20.476;2023-07-28T00:58:36;21.78;47.68
68867;SHT30;56451;44.804;20.476;2023-07-28T01:01:02;21.79;47.54
68867;SHT30;56451;44.804;20.476;2023-07-28T01:03:28;21.79;47.52
68867;SHT30;56451;44.804;20.476;2023-07-28T01:08:56;21.79;47.67
68867;SHT30;56451;44.804;20.476;2023-07-28T01:11:22;21.78;47.51
68867;SHT30;56451;44.804;20.476;2023-07-28T01:13:48;21.78;47.61
68867;SHT30;56451;44.804;20.476;2023-07-28T01:16:14;21.81;47.92
68867;SHT30;56451;44.804;20.476;2023-07-28T01:18:41;21.84;47.42
68867;SHT30;56451;44.804;20.476;2023-07-28T01:21:11;21.82;47.41
68867;SHT30;56451;44.804;20.476;2023-07-28T01:26:08;21.84;47.20
68867;SHT30;56451;44.804;20.476;2023-07-28T01:28:35;21.84;47.39
68867;SHT30;56451;44.804;20.476;2023-07-28T01:31:03;21.84;47.26
68867;SHT30;56451;44.804;20.476;2023-07-28T01:33:29;21.77;47.15
68867;SHT30;56451;44.804;20.476;2023-07-28T01:35:55;21.78;47.15
68867;SHT30;56451;44.804;20.476;2023-07-28T01:38:21;21.77;47.24
68867;SHT30;56451;44.804;20.476;2023-07-28T01:40:47;21.75;47.18
68867;SHT30;56451;44.804;20.476;2023-07-28T01:43:13;21.73;47.16
68867;SHT30;56451;44.804;20.476;2023-07-28T01:45:39;21.74;47.08
68867;SHT30;56451;44.804;20.476;2023-07-28T01:48:05;21.73;46.89
68867;SHT30;56451;44.804;20.476;2023-07-28T01:50:31;21.71;46.97
68867;SHT30;56451;44.804;20.476;2023-07-28T01:52:57;21.67;47.14
68867;SHT30;56451;44.804;20.476;2023-07-28T01:55:23;21.73;47.07
68867;SHT30;56451;44.804;20.476;2023-07-28T01:57:53;21.67;47.28
68867;SHT30;56451;44.804;20.476;2023-07-28T02:00:20;21.64;47.32
68867;SHT30;56451;44.804;20.476;2023-07-28T02:02:47;21.64;47.66
68867;SHT30;56451;44.804;20.476;2023-07-28T02:05:13;21.64;47.72
68867;SHT30;56451;44.804;20.476;2023-07-28T02:07:39;21.67;47.88
68867;SHT30;56451;44.804;20.476;2023-07-28T02:10:05;21.68;47.84
68867;SHT30;56451;44.804;20.476;2023-07-28T02:12:32;21.64;47.57
68867;SHT30;56451;44.804;20.476;2023-07-28T02:14:59;21.62;47.85
68867;SHT30;56451;44.804;20.476;2023-07-28T02:17:25;21.60;47.88
68867;SHT30;56451;44.804;20.476;2023-07-28T02:19:51;21.64;48.10
68867;SHT30;56451;44.804;20.476;2023-07-28T02:22:17;21.61;47.93
68867;SHT30;56451;44.804;20.476;2023-07-28T02:24:43;21.64;47.84
68867;SHT30;56451;44.804;20.476;2023-07-28T02:27:09;21.61;47.73
68867;SHT30;56451;44.804;20.476;2023-07-28T02:29:34;21.58;47.99
68867;SHT30;56451;44.804;20.476;2023-07-28T02:34:49;21.65;47.34
68867;SHT30;56451;44.804;20.476;2023-07-28T02:37:16;21.61;47.23
68867;SHT30;56451;44.804;20.476;2023-07-28T02:39:42;21.67;46.75
68867;SHT30;56451;44.804;20.476;2023-07-28T02:42:08;21.69;47.00
68867;SHT30;56451;44.804;20.476;2023-07-28T02:44:33;21.67;47.11
68867;SHT30;56451;44.804;20.476;2023-07-28T02:46:59;21.68;47.04
68867;SHT30;56451;44.804;20.476;2023-07-28T02:49:25;21.68;47.32
68867;SHT30;56451;44.804;20.476;2023-07-28T02:51:51;21.69;46.97
68867;SHT30;56451;44.804;20.476;2023-07-28T02:54:17;21.69;46.96
68867;SHT30;56451;44.804;20.476;2023-07-28T02:56:44;21.69;46.90
68867;SHT30;56451;44.804;20.476;2023-07-28T02:59:11;21.69;46.54
68867;SHT30;56451;44.804;20.476;2023-07-28T03:01:37;21.75;46.85
68867;SHT30;56451;44.804;20.476;2023-07-28T03:04:03;21.77;46.42
68867;SHT30;56451;44.804;20.476;2023-07-28T03:06:42;21.82;46.22
68867;SHT30;56451;44.804;20.476;2023-07-28T03:09:08;21.85;46.22
68867;SHT30;56451;44.804;20.476;2023-07-28T03:11:46;21.81;46.29
68867;SHT30;56451;44.804;20.476;2023-07-28T03:14:12;21.88;45.53
68867;SHT30;56451;44.804;20.476;2023-07-28T03:16:39;21.84;46.01
68867;SHT30;56451;44.804;20.476;2023-07-28T03:19:05;21.85;45.38
68867;SHT30;56451;44.804;20.476;2023-07-28T03:21:31;21.82;45.80
68867;SHT30;56451;44.804;20.476;2023-07-28T03:23:57;21.84;45.92
68867;SHT30;56451;44.804;20.476;2023-07-28T03:26:23;21.84;45.88
68867;SHT30;56451;44.804;20.476;2023-07-28T03:28:49;21.82;45.98
68867;SHT30;56451;44.804;20.476;2023-07-28T03:31:15;21.85;46.12
68867;SHT30;56451;44.804;20.476;2023-07-28T03:33:41;21.84;46.09
68867;SHT30;56451;44.804;20.476;2023-07-28T03:36:07;21.82;46.16
68867;SHT30;56451;44.804;20.476;2023-07-28T03:38:34;21.79;46.35
68867;SHT30;56451;44.804;20.476;2023-07-28T03:41:00;21.82;46.24
68867;SHT30;56451;44.804;20.476;2023-07-28T03:43:26;21.82;46.01
68867;SHT30;56451;44.804;20.476;2023-07-28T03:45:52;21.82;46.16
68867;SHT30;56451;44.804;20.476;2023-07-28T03:48:19;21.75;46.36
68867;SHT30;56451;44.804;20.476;2023-07-28T03:50:45;21.74;46.51
68867;SHT30;56451;44.804;20.476;2023-07-28T03:53:10;21.75;46.47
68867;SHT30;56451;44.804;20.476;2023-07-28T03:55:37;21.78;46.26
68867;SHT30;56451;44.804;20.476;2023-07-28T03:58:03;21.78;46.45
68867;SHT30;56451;44.804;20.476;2023-07-28T04:00:29;21.78;46.37
68867;SHT30;56451;44.804;20.476;2023-07-28T04:02:55;21.79;46.73
68867;SHT30;56451;44.804;20.476;2023-07-28T04:05:21;21.79;46.74
68867;SHT30;56451;44.804;20.476;2023-07-28T04:07:47;21.78;46.81
68867;SHT30;56451;44.804;20.476;2023-07-28T04:10:13;21.81;46.82
68867;SHT30;56451;44.804;20.476;2023-07-28T04:12:39;21.78;46.73
68867;SHT30;56451;44.804;20.476;2023-07-28T04:15:06;21.75;47.11
68867;SHT30;56451;44.804;20.476;2023-07-28T04:17:32;21.75;46.99
68867;SHT30;56451;44.804;20.476;2023-07-28T04:19:57;21.79;47.11
68867;SHT30;56451;44.804;20.476;2023-07-28T04:22:23;21.78;46.96
68867;SHT30;56451;44.804;20.476;2023-07-28T04:24:52;21.78;47.28
68867;SHT30;56451;44.804;20.476;2023-07-28T04:27:20;21.69;47.53
68867;SHT30;56451;44.804;20.476;2023-07-28T04:29:47;21.69;47.54
68867;SHT30;56451;44.804;20.476;2023-07-28T04:32:17;21.71;47.72
68867;SHT30;56451;44.804;20.476;2023-07-28T04:34:43;21.74;47.71
68867;SHT30;56451;44.804;20.476;2023-07-28T04:37:18;21.74;47.59
68867;SHT30;56451;44.804;20.476;2023-07-28T04:39:59;21.77;47.65
68867;SHT30;56451;44.804;20.476;2023-07-28T04:42:31;21.78;47.74
68867;SHT30;56451;44.804;20.476;2023-07-28T04:44:57;21.81;47.75
68867;SHT30;56451;44.804;20.476;2023-07-28T04:47:23;21.84;47.81
68867;SHT30;56451;44.804;20.476;2023-07-28T04:49:48;21.82;47.77
68867;SHT30;56451;44.804;20.476;2023-07-28T04:52:33;21.82;47.67
68867;SHT30;56451;44.804;20.476;2023-07-28T04:55:01;21.84;47.79
68867;SHT30;56451;44.804;20.476;2023-07-28T04:57:28;21.89;47.94
68867;SHT30;56451;44.804;20.476;2023-07-28T04:59:54;21.95;47.87
68867;SHT30;56451;44.804;20.476;2023-07-28T05:02:20;21.99;48.16
68867;SHT30;56451;44.804;20.476;2023-07-28T05:04:46;21.98;48.22
68867;SHT30;56451;44.804;20.476;2023-07-28T05:07:12;21.99;48.00
68867;SHT30;56451;44.804;20.476;2023-07-28T05:09:38;22.06;47.97
68867;SHT30;56451;44.804;20.476;2023-07-28T05:12:04;22.12;48.42
68867;SHT30;56451;44.804;20.476;2023-07-28T05:14:36;22.17;48.04
68867;SHT30;56451;44.804;20.476;2023-07-28T05:17:02;22.20;47.77
68867;SHT30;56451;44.804;20.476;2023-07-28T05:19:54;22.20;47.93
68867;SHT30;56451;44.804;20.476;2023-07-28T05:22:39;22.16;47.99
68867;SHT30;56451;44.804;20.476;2023-07-28T05:25:05;22.19;48.01
68867;SHT30;56451;44.804;20.476;2023-07-28T05:27:36;22.20;47.67
68867;SHT30;56451;44.804;20.476;2023-07-28T05:30:02;22.23;48.51
68867;SHT30;56451;44.804;20.476;2023-07-28T05:32:28;22.26;47.77
68867;SHT30;56451;44.804;20.476;2023-07-28T05:35:10;22.29;48.54
68867;SHT30;56451;44.804;20.476;2023-07-28T05:37:36;22.36;48.21
68867;SHT30;56451;44.804;20.476;2023-07-28T05:40:02;22.37;48.21
68867;SHT30;56451;44.804;20.476;2023-07-28T05:42:30;22.43;48.15
68867;SHT30;56451;44.804;20.476;2023-07-28T05:44:56;22.47;48.60
68867;SHT30;56451;44.804;20.476;2023-07-28T05:47:22;22.52;48.17
68867;SHT30;56451;44.804;20.476;2023-07-28T05:49:48;22.57;47.82
68867;SHT30;56451;44.804;20.476;2023-07-28T05:52:14;22.61;47.07
68867;SHT30;56451;44.804;20.476;2023-07-28T05:54:40;22.63;47.87
68867;SHT30;56451;44.804;20.476;2023-07-28T05:57:06;22.67;47.91
68867;SHT30;56451;44.804;20.476;2023-07-28T05:59:32;22.70;47.50
68867;SHT30;56451;44.804;20.476;2023-07-28T06:01:58;22.73;47.69
68867;SHT30;56451;44.804;20.476;2023-07-28T06:04:32;22.73;47.26
68867;SHT30;56451;44.804;20.476;2023-07-28T06:07:02;22.77;47.19
68867;SHT30;56451;44.804;20.476;2023-07-28T06:09:28;22.81;47.48
68867;SHT30;56451;44.804;20.476;2023-07-28T06:11:53;22.83;47.61
68867;SHT30;56451;44.804;20.476;2023-07-28T06:14:20;22.91;47.65
68867;SHT30;56451;44.804;20.476;2023-07-28T06:16:46;22.91;48.00
68867;SHT30;56451;44.804;20.476;2023-07-28T06:19:12;22.97;47.33
68867;SHT30;56451;44.804;20.476;2023-07-28T06:21:40;22.98;47.68
68867;SHT30;56451;44.804;20.476;2023-07-28T06:24:06;23.02;46.85
68867;SHT30;56451;44.804;20.476;2023-07-28T06:26:32;23.07;47.04
68867;SHT30;56451;44.804;20.476;2023-07-28T06:28:58;23.15;47.57
68867;SHT30;56451;44.804;20.476;2023-07-28T06:31:24;23.16;47.49
68867;SHT30;56451;44.804;20.476;2023-07-28T06:33:49;23.21;48.07
68867;SHT30;56451;44.804;20.476;2023-07-28T06:36:15;23.26;47.58
68867;SHT30;56451;44.804;20.476;2023-07-28T06:38:43;23.28;46.98
68867;SHT30;56451;44.804;20.476;2023-07-28T06:41:11;23.32;47.38
68867;SHT30;56451;44.804;20.476;2023-07-28T06:43:37;23.33;46.80
68867;SHT30;56451;44.804;20.476;2023-07-28T06:46:06;23.35;46.46
68867;SHT30;56451;44.804;20.476;2023-07-28T06:48:32;23.41;46.09
68867;SHT30;56451;44.804;20.476;2023-07-28T06:50:59;23.41;46.37
68867;SHT30;56451;44.804;20.476;2023-07-28T06:53:25;23.46;46.28
68867;SHT30;56451;44.804;20.476;2023-07-28T06:55:51;23.51;46.01
68867;SHT30;56451;44.804;20.476;2023-07-28T06:58:17;23.48;45.87
68867;SHT30;56451;44.804;20.476;2023-07-28T07:00:42;23.48;46.13
68867;SHT30;56451;44.804;20.476;2023-07-28T07:03:10;23.49;46.49
68867;SHT30;56451;44.804;20.476;2023-07-28T07:05:36;23.53;46.12
68867;SHT30;56451;44.804;20.476;2023-07-28T07:08:02;23.60;46.50
68867;SHT30;56451;44.804;20.476;2023-07-28T07:10:28;23.62;47.24
68867;SHT30;56451;44.804;20.476;2023-07-28T07:12:53;23.65;47.00
68867;SHT30;56451;44.804;20.476;2023-07-28T07:15:22;23.72;46.26
68867;SHT30;56451;44.804;20.476;2023-07-28T07:17:47;23.70;46.76
68867;SHT30;56451;44.804;20.476;2023-07-28T07:20:13;23.74;46.45
68867;SHT30;56451;44.804;20.476;2023-07-28T07:22:41;23.80;46.27
68867;SHT30;56451;44.804;20.476;2023-07-28T07:25:07;23.87;46.92
68867;SHT30;56451;44.804;20.476;2023-07-28T07:27:33;23.90;45.69
68867;SHT30;56451;44.804;20.476;2023-07-28T07:29:59;23.93;46.12
68867;SHT30;56451;44.804;20.476;2023-07-28T07:32:25;23.97;46.08
68867;SHT30;56451;44.804;20.476;2023-07-28T07:34:51;24.07;45.90
68867;SHT30;56451;44.804;20.476;2023-07-28T07:37:18;24.13;45.55
68867;SHT30;56451;44.804;20.476;2023-07-28T07:39:44;24.14;45.74
68867;SHT30;56451;44.804;20.476;2023-07-28T07:42:10;24.18;45.74
68867;SHT30;56451;44.804;20.476;2023-07-28T07:44:40;24.25;45.42
68867;SHT30;56451;44.804;20.476;2023-07-28T07:47:14;24.35;44.92
68867;SHT30;56451;44.804;20.476;2023-07-28T07:49:40;24.41;44.92
68867;SHT30;56451;44.804;20.476;2023-07-28T07:52:09;24.44;44.67
68867;SHT30;56451;44.804;20.476;2023-07-28T07:54:35;24.49;44.86
68867;SHT30;56451;44.804;20.476;2023-07-28T07:57:02;24.51;43.70
68867;SHT30;56451;44.804;20.476;2023-07-28T07:59:28;24.55;43.47
68867;SHT30;56451;44.804;20.476;2023-07-28T08:01:56;24.58;43.40
68867;SHT30;56451;44.804;20.476;2023-07-28T08:04:23;24.61;42.93
68867;SHT30;56451;44.804;20.476;2023-07-28T08:06:49;24.61;42.49
68867;SHT30;56451;44.804;20.476;2023-07-28T08:09:15;24.64;43.34
68867;SHT30;56451;44.804;20.476;2023-07-28T08:11:41;24.62;42.61
68867;SHT30;56451;44.804;20.476;2023-07-28T08:14:07;24.66;42.37
68867;SHT30;56451;44.804;20.476;2023-07-28T08:16:33;24.69;42.64
68867;SHT30;56451;44.804;20.476;2023-07-28T08:18:59;24.65;42.92
68867;SHT30;56451;44.804;20.476;2023-07-28T08:21:25;24.68;43.59
68867;SHT30;56451;44.804;20.476;2023-07-28T08:23:51;24.65;42.71
68867;SHT30;56451;44.804;20.476;2023-07-28T08:26:17;24.68;43.20
68867;SHT30;56451;44.804;20.476;2023-07-28T08:28:43;24.68;42.68
68867;SHT30;56451;44.804;20.476;2023-07-28T08:31:10;24.72;42.83
68867;SHT30;56451;44.804;20.476;2023-07-28T08:33:36;24.80;42.47
68867;SHT30;56451;44.804;20.476;2023-07-28T08:36:02;24.87;42.73
68867;SHT30;56451;44.804;20.476;2023-07-28T08:38:28;24.85;42.55
68867;SHT30;56451;44.804;20.476;2023-07-28T08:40:56;24.85;42.02
68867;SHT30;56451;44.804;20.476;2023-07-28T08:43:24;24.97;40.85
68867;SHT30;56451;44.804;20.476;2023-07-28T08:45:52;25.03;39.52
68867;SHT30;56451;44.804;20.476;2023-07-28T08:48:19;25.10;39.61
68867;SHT30;56451;44.804;20.476;2023-07-28T08:50:45;25.07;39.29
68867;SHT30;56451;44.804;20.476;2023-07-28T08:53:11;25.16;36.73
68867;SHT30;56451;44.804;20.476;2023-07-28T08:55:36;25.22;37.97
68867;SHT30;56451;44.804;20.476;2023-07-28T08:58:16;25.26;37.74
68867;SHT30;56451;44.804;20.476;2023-07-28T09:00:42;25.26;38.17
68867;SHT30;56451;44.804;20.476;2023-07-28T09:03:09;25.35;36.41
68867;SHT30;56451;44.804;20.476;2023-07-28T09:05:36;25.43;36.80
68867;SHT30;56451;44.804;20.476;2023-07-28T09:08:02;25.44;37.45
68867;SHT30;56451;44.804;20.476;2023-07-28T09:10:48;25.41;37.35
68867;SHT30;56451;44.804;20.476;2023-07-28T09:13:16;25.45;37.18
68867;SHT30;56451;44.804;20.476;2023-07-28T09:15:43;25.53;38.10
68867;SHT30;56451;44.804;20.476;2023-07-28T09:18:14;25.57;38.24
68867;SHT30;56451;44.804;20.476;2023-07-28T09:20:41;25.55;38.34
68867;SHT30;56451;44.804;20.476;2023-07-28T09:23:12;25.61;38.96
68867;SHT30;56451;44.804;20.476;2023-07-28T09:25:39;25.64;39.21
68867;SHT30;56451;44.804;20.476;2023-07-28T09:28:05;25.70;38.93
68867;SHT30;56451;44.804;20.476;2023-07-28T09:30:48;25.71;39.02
68867;SHT30;56451;44.804;20.476;2023-07-28T09:33:32;25.72;39.02
68867;SHT30;56451;44.804;20.476;2023-07-28T09:36:08;25.75;38.05
68867;SHT30;56451;44.804;20.476;2023-07-28T09:38:39;25.78;37.83
68867;SHT30;56451;44.804;20.476;2023-07-28T09:41:10;25.82;38.00
68867;SHT30;56451;44.804;20.476;2023-07-28T09:43:37;25.85;38.34
68867;SHT30;56451;44.804;20.476;2023-07-28T09:46:05;25.85;38.50
68867;SHT30;56451;44.804;20.476;2023-07-28T09:48:34;25.89;38.70
68867;SHT30;56451;44.804;20.476;2023-07-28T09:51:29;25.96;38.27
68867;SHT30;56451;44.804;20.476;2023-07-28T09:53:59;25.96;38.64
68867;SHT30;56451;44.804;20.476;2023-07-28T09:56:29;26.02;39.01
68867;SHT30;56451;44.804;20.476;2023-07-28T09:58:59;26.06;39.18
68867;SHT30;56451;44.804;20.476;2023-07-28T10:01:28;26.09;39.42
68867;SHT30;56451;44.804;20.476;2023-07-28T10:03:54;26.15;39.49
68867;SHT30;56451;44.804;20.476;2023-07-28T10:06:20;26.18;39.49
68867;SHT30;56451;44.804;20.476;2023-07-28T10:08:50;26.20;39.62
68867;SHT30;56451;44.804;20.476;2023-07-28T10:11:17;26.23;39.64
68867;SHT30;56451;44.804;20.476;2023-07-28T10:13:45;26.26;39.33
68867;SHT30;56451;44.804;20.476;2023-07-28T10:16:13;26.28;39.63
68867;SHT30;56451;44.804;20.476;2023-07-28T10:18:51;26.29;39.56
68867;SHT30;56451;44.804;20.476;2023-07-28T10:21:18;26.39;38.95
68867;SHT30;56451;44.804;20.476;2023-07-28T10:23:44;26.46;39.19
68867;SHT30;56451;44.804;20.476;2023-07-28T10:26:10;26.47;38.90
68867;SHT30;56451;44.804;20.476;2023-07-28T10:28:37;26.49;38.92
68867;SHT30;56451;44.804;20.476;2023-07-28T10:31:10;26.50;39.12
68867;SHT30;56451;44.804;20.476;2023-07-28T10:33:38;26.59;39.10
68867;SHT30;56451;44.804;20.476;2023-07-28T10:36:34;26.67;38.87
68867;SHT30;56451;44.804;20.476;2023-07-28T10:41:36;26.69;38.57
68867;SHT30;56451;44.804;20.476;2023-07-28T10:44:02;26.71;38.40
68867;SHT30;56451;44.804;20.476;2023-07-28T10:46:28;26.76;38.55
68867;SHT30;56451;44.804;20.476;2023-07-28T10:48:54;26.74;38.55
68867;SHT30;56451;44.804;20.476;2023-07-28T10:51:25;26.80;38.16
68867;SHT30;56451;44.804;20.476;2023-07-28T10:53:55;26.83;37.80
68867;SHT30;56451;44.804;20.476;2023-07-28T10:56:21;26.88;37.75
68867;SHT30;56451;44.804;20.476;2023-07-28T10:58:59;26.88;37.62
68867;SHT30;56451;44.804;20.476;2023-07-28T11:01:33;26.91;38.06
68867;SHT30;56451;44.804;20.476;2023-07-28T11:04:19;26.94;38.43
68867;SHT30;56451;44.804;20.476;2023-07-28T11:06:47;26.98;38.42
68867;SHT30;56451;44.804;20.476;2023-07-28T11:09:15;27.01;38.28
68867;SHT30;56451;44.804;20.476;2023-07-28T11:11:42;27.04;38.18
68867;SHT30;56451;44.804;20.476;2023-07-28T11:14:09;27.05;38.55
68867;SHT30;56451;44.804;20.476;2023-07-28T11:16:36;27.14;37.52
68867;SHT30;56451;44.804;20.476;2023-07-28T11:19:03;27.21;37.76
68867;SHT30;56451;44.804;20.476;2023-07-28T11:21:29;27.18;37.99
68867;SHT30;56451;44.804;20.476;2023-07-28T11:23:56;27.19;37.70
68867;SHT30;56451;44.804;20.476;2023-07-28T11:26:22;27.19;38.01
68867;SHT30;56451;44.804;20.476;2023-07-28T11:28:48;27.26;37.35
68867;SHT30;56451;44.804;20.476;2023-07-28T11:31:14;27.32;37.31
68867;SHT30;56451;44.804;20.476;2023-07-28T11:33:40;27.35;37.14
68867;SHT30;56451;44.804;20.476;2023-07-28T11:36:06;27.32;37.70
68867;SHT30;56451;44.804;20.476;2023-07-28T11:38:33;27.42;36.71
68867;SHT30;56451;44.804;20.476;2023-07-28T11:41:01;27.45;36.44
68867;SHT30;56451;44.804;20.476;2023-07-28T11:43:28;27.45;36.05
68867;SHT30;56451;44.804;20.476;2023-07-28T11:45:55;27.49;35.87
68867;SHT30;56451;44.804;20.476;2023-07-28T11:48:21;27.52;36.00
68867;SHT30;56451;44.804;20.476;2023-07-28T11:50:47;27.57;35.85
68867;SHT30;56451;44.804;20.476;2023-07-28T11:53:14;27.63;35.98
68867;SHT30;56451;44.804;20.476;2023-07-28T11:55:40;27.66;36.00
68867;SHT30;56451;44.804;20.476;2023-07-28T11:58:07;27.70;35.13
68867;SHT30;56451;44.804;20.476;2023-07-28T12:00:35;27.73;34.72
68867;SHT30;56451;44.804;20.476;2023-07-28T12:03:07;27.80;35.05
68867;SHT30;56451;44.804;20.476;2023-07-28T12:05:36;27.80;35.46
68867;SHT30;56451;44.804;20.476;2023-07-28T12:08:02;27.79;35.77
68867;SHT30;56451;44.804;20.476;2023-07-28T12:10:33;27.77;35.90
68867;SHT30;56451;44.804;20.476;2023-07-28T12:13:07;27.80;36.08
68867;SHT30;56451;44.804;20.476;2023-07-28T12:15:34;27.87;35.89
68867;SHT30;56451;44.804;20.476;2023-07-28T12:18:09;27.92;35.86
68867;SHT30;56451;44.804;20.476;2023-07-28T12:20:38;27.94;34.48
68867;SHT30;56451;44.804;20.476;2023-07-28T12:23:05;27.94;34.84
68867;SHT30;56451;44.804;20.476;2023-07-28T12:25:32;28.04;34.52
68867;SHT30;56451;44.804;20.476;2023-07-28T12:27:58;28.07;34.53
68867;SHT30;56451;44.804;20.476;2023-07-28T12:30:24;28.10;35.42
68867;SHT30;56451;44.804;20.476;2023-07-28T12:32:50;28.10;35.01
68867;SHT30;56451;44.804;20.476;2023-07-28T12:35:16;28.13;35.23
68867;SHT30;56451;44.804;20.476;2023-07-28T12:37:42;28.17;35.31
68867;SHT30;56451;44.804;20.476;2023-07-28T12:40:09;28.15;35.55
68867;SHT30;56451;44.804;20.476;2023-07-28T12:42:36;28.17;35.57
68867;SHT30;56451;44.804;20.476;2023-07-28T12:45:02;28.22;35.07
68867;SHT30;56451;44.804;20.476;2023-07-28T12:47:30;28.29;34.44
68867;SHT30;56451;44.804;20.476;2023-07-28T12:49:56;28.31;35.13
68867;SHT30;56451;44.804;20.476;2023-07-28T12:52:22;28.31;34.49
68867;SHT30;56451;44.804;20.476;2023-07-28T12:54:47;28.32;34.53
68867;SHT30;56451;44.804;20.476;2023-07-28T12:57:13;28.40;34.52
68867;SHT30;56451;44.804;20.476;2023-07-28T12:59:39;28.47;34.18
68867;SHT30;56451;44.804;20.476;2023-07-28T13:02:05;28.48;33.94
68867;SHT30;56451;44.804;20.476;2023-07-28T13:04:31;28.48;34.76
68867;SHT30;56451;44.804;20.476;2023-07-28T13:06:57;28.53;34.13
68867;SHT30;56451;44.804;20.476;2023-07-28T13:09:23;28.55;34.58
68867;SHT30;56451;44.804;20.476;2023-07-28T13:11:49;28.65;33.46
68867;SHT30;56451;44.804;20.476;2023-07-28T13:14:15;28.72;32.56
68867;SHT30;56451;44.804;20.476;2023-07-28T13:16:41;28.75;32.97
68867;SHT30;56451;44.804;20.476;2023-07-28T13:19:07;28.82;33.58
68867;SHT30;56451;44.804;20.476;2023-07-28T13:21:33;28.86;33.42
68867;SHT30;56451;44.804;20.476;2023-07-28T13:23:59;28.98;32.42
68867;SHT30;56451;44.804;20.476;2023-07-28T13:26:25;28.99;32.49
68867;SHT30;56451;44.804;20.476;2023-07-28T13:28:51;28.99;32.89
68867;SHT30;56451;44.804;20.476;2023-07-28T13:31:18;29.02;33.38
68867;SHT30;56451;44.804;20.476;2023-07-28T13:33:44;29.07;33.51
68867;SHT30;56451;44.804;20.476;2023-07-28T13:36:11;29.13;33.25
68867;SHT30;56451;44.804;20.476;2023-07-28T13:38:38;29.10;33.91
68867;SHT30;56451;44.804;20.476;2023-07-28T13:41:05;29.14;32.52
68867;SHT30;56451;44.804;20.476;2023-07-28T13:43:33;29.19;32.91
68867;SHT30;56451;44.804;20.476;2023-07-28T13:46:02;29.21;34.40
68867;SHT30;56451;44.804;20.476;2023-07-28T13:48:30;29.29;32.13
68867;SHT30;56451;44.804;20.476;2023-07-28T13:50:57;29.30;33.13
68867;SHT30;56451;44.804;20.476;2023-07-28T13:53:24;29.30;33.64
68867;SHT30;56451;44.804;20.476;2023-07-28T13:55:50;29.41;31.57
68867;SHT30;56451;44.804;20.476;2023-07-28T13:58:17;29.47;31.49
68867;SHT30;56451;44.804;20.476;2023-07-28T14:00:43;29.54;31.14
68867;SHT30;56451;44.804;20.476;2023-07-28T14:03:09;29.62;30.79
68867;SHT30;56451;44.804;20.476;2023-07-28T14:05:35;29.64;31.99
68867;SHT30;56451;44.804;20.476;2023-07-28T14:08:01;29.64;32.76
68867;SHT30;56451;44.804;20.476;2023-07-28T14:10:27;29.71;31.23
68867;SHT30;56451;44.804;20.476;2023-07-28T14:12:53;29.74;30.88
68867;SHT30;56451;44.804;20.476;2023-07-28T14:15:19;29.77;30.57
68867;SHT30;56451;44.804;20.476;2023-07-28T14:17:45;29.75;31.99
68867;SHT30;56451;44.804;20.476;2023-07-28T14:20:11;29.79;32.14
68867;SHT30;56451;44.804;20.476;2023-07-28T14:22:37;29.89;30.19
68867;SHT30;56451;44.804;20.476;2023-07-28T14:25:03;29.89;30.92
68867;SHT30;56451;44.804;20.476;2023-07-28T14:27:29;30.01;30.36
68867;SHT30;56451;44.804;20.476;2023-07-28T14:29:55;30.06;29.98
68867;SHT30;56451;44.804;20.476;2023-07-28T14:32:21;30.08;30.23
68867;SHT30;56451;44.804;20.476;2023-07-28T14:34:47;30.10;30.54
68867;SHT30;56451;44.804;20.476;2023-07-28T14:37:13;30.22;30.53
68867;SHT30;56451;44.804;20.476;2023-07-28T14:39:39;30.32;30.58
68867;SHT30;56451;44.804;20.476;2023-07-28T14:42:05;30.44;29.90
68867;SHT30;56451;44.804;20.476;2023-07-28T14:44:31;30.43;30.47
68867;SHT30;56451;44.804;20.476;2023-07-28T14:46:58;30.46;31.32
68867;SHT30;56451;44.804;20.476;2023-07-28T14:49:24;30.52;31.65
68867;SHT30;56451;44.804;20.476;2023-07-28T14:51:54;30.60;31.07
68867;SHT30;56451;44.804;20.476;2023-07-28T14:54:20;30.67;31.14
68867;SHT30;56451;44.804;20.476;2023-07-28T14:56:46;30.74;31.21
68867;SHT30;56451;44.804;20.476;2023-07-28T14:59:12;30.87;30.67
68867;SHT30;56451;44.804;20.476;2023-07-28T15:01:38;30.94;30.68
68867;SHT30;56451;44.804;20.476;2023-07-28T15:04:04;30.98;31.39
68867;SHT30;56451;44.804;20.476;2023-07-28T15:06:30;30.98;31.81
68867;SHT30;56451;44.804;20.476;2023-07-28T15:08:57;30.98;31.55
68867;SHT30;56451;44.804;20.476;2023-07-28T15:11:22;30.98;31.53
68867;SHT30;56451;44.804;20.476;2023-07-28T15:13:50;31.04;31.46
68867;SHT30;56451;44.804;20.476;2023-07-28T15:16:16;31.01;31.83
68867;SHT30;56451;44.804;20.476;2023-07-28T15:18:42;31.04;31.57
68867;SHT30;56451;44.804;20.476;2023-07-28T15:21:08;31.05;31.80
68867;SHT30;56451;44.804;20.476;2023-07-28T15:23:34;31.04;31.77
68867;SHT30;56451;44.804;20.476;2023-07-28T15:26:00;31.02;31.88